Time;durP1;ratioP1;P1;durP2;ratioP2;P2;SDS_P1;SDS_P2;PMS_P1;PMS_P2;Temp;Humidity;BMP_temperature;BMP_pressure;BME280_temperature;BME280_humidity;BME280_pressure;Samples;Min_cycle;Max_cycle;Signal;HPM_P1;HPM_P2
2021/03/30 00:01:45;;;;;;;9.13;4.30;;;;;;;17.73;46.93;100864.69;4986888;28;20129;-62
2021/03/30 00:04:12;;;;;;;13.87;6.03;;;;;;;17.73;47.03;100853.38;4988574;28;20112;-62
2021/03/30 00:06:38;;;;;;;8.77;5.20;;;;;;;17.75;46.73;100851.09;4987777;28;20089;-62
2021/03/30 00:09:05;;;;;;;9.53;4.00;;;;;;;17.80;46.37;100846.50;4988240;28;20062;-65
2021/03/30 00:11:31;;;;;;;10.57;5.93;;;;;;;17.93;46.03;100839.94;4989541;28;20124;-61
2021/03/30 00:13:57;;;;;;;12.27;5.00;;;;;;;17.98;46.06;100839.78;4987511;28;20137;-61
2021/03/30 00:16:24;;;;;;;12.20;6.03;;;;;;;18.02;45.58;100845.63;4988266;28;20082;-63
2021/03/30 00:18:50;;;;;;;16.23;5.47;;;;;;;18.07;45.83;100840.69;4989511;28;20503;-62
2021/03/30 00:21:16;;;;;;;12.40;4.33;;;;;;;18.02;45.20;100823.88;4988925;28;20047;-62
2021/03/30 00:23:43;;;;;;;7.20;4.40;;;;;;;18.19;45.11;100838.09;4986850;28;20038;-59
2021/03/30 00:26:09;;;;;;;8.40;4.33;;;;;;;18.22;45.13;100822.44;4989052;28;20496;-61
2021/03/30 00:28:35;;;;;;;12.13;4.80;;;;;;;18.26;44.59;100845.28;4989085;28;20047;-62
2021/03/30 00:31:02;;;;;;;11.23;4.83;;;;;;;18.20;44.72;100828.44;4988138;28;20491;-61
2021/03/30 00:33:28;;;;;;;10.63;4.70;;;;;;;18.34;44.66;100847.28;4990185;28;20563;-61
2021/03/30 00:35:55;;;;;;;15.80;5.93;;;;;;;18.35;44.54;100837.66;4988668;28;20129;-60
2021/03/30 00:38:21;;;;;;;10.70;5.00;;;;;;;18.42;44.21;100835.19;4988409;28;20055;-61
2021/03/30 00:40:50;;;;;;;8.47;4.83;;;;;;;18.54;43.77;100845.88;4985652;28;20047;-62
2021/03/30 00:43:16;;;;;;;9.30;4.33;;;;;;;18.32;43.96;100805.19;4989863;28;20479;-61
2021/03/30 00:45:43;;;;;;;17.23;4.90;;;;;;;18.64;43.89;100839.94;4988695;28;20042;-61
2021/03/30 00:48:20;;;;;;;10.00;5.80;;;;;;;18.61;43.52;100832.94;4983503;28;20065;-63
2021/03/30 00:50:47;;;;;;;14.70;5.43;;;;;;;18.62;43.66;100851.56;4989929;28;20419;-62
2021/03/30 00:53:14;;;;;;;13.00;5.47;;;;;;;18.51;44.08;100855.84;4989143;28;20046;-60
2021/03/30 00:55:41;;;;;;;16.07;5.70;;;;;;;18.33;44.61;100849.28;4988800;28;20042;-60
2021/03/30 00:58:07;;;;;;;9.40;4.23;;;;;;;18.09;45.21;100855.31;4986245;28;20043;-60
2021/03/30 01:00:34;;;;;;;9.73;4.53;;;;;;;18.00;45.47;100851.59;4988059;28;20483;-61
2021/03/30 01:03:01;;;;;;;21.87;6.53;;;;;;;17.92;46.05;100846.75;4989626;28;20050;-66
2021/03/30 01:05:27;;;;;;;8.63;4.97;;;;;;;17.73;46.27;100824.31;4992588;28;20487;-63
2021/03/30 01:08:21;;;;;;;11.10;6.10;;;;;;;17.77;46.72;100860.09;4992724;28;20050;-64
2021/03/30 01:10:58;;;;;;;8.60;5.60;;;;;;;17.64;47.02;100855.34;4991123;28;20089;-62
2021/03/30 01:13:43;;;;;;;13.47;5.47;;;;;;;17.49;47.48;100861.34;4991066;28;20046;-60
2021/03/30 01:16:14;;;;;;;12.83;4.23;;;;;;;17.29;47.80;100845.72;4989151;28;20050;-62
2021/03/30 01:19:01;;;;;;;11.40;5.73;;;;;;;17.12;48.55;100843.59;4995341;28;20046;-67
2021/03/30 01:21:46;;;;;;;7.97;3.13;;;;;;;17.17;48.53;100868.88;4992118;28;20068;-68
2021/03/30 01:24:25;;;;;;;6.93;4.07;;;;;;;17.16;48.69;100850.28;4992809;28;20050;-68
2021/03/30 01:26:57;;;;;;;11.43;5.03;;;;;;;17.23;48.35;100853.50;4989845;28;20137;-69
2021/03/30 01:29:51;;;;;;;6.60;3.07;;;;;;;17.15;48.68;100854.25;4991344;28;20042;-71
2021/03/30 01:32:39;;;;;;;16.47;4.83;;;;;;;17.04;49.16;100858.47;4991183;28;20050;-71
2021/03/30 01:35:11;;;;;;;9.43;4.30;;;;;;;17.02;49.36;100849.47;4990743;28;20046;-71
2021/03/30 01:37:46;;;;;;;9.50;4.27;;;;;;;16.99;48.91;100828.38;4990799;28;20129;-71
2021/03/30 01:40:15;;;;;;;10.00;5.57;;;;;;;17.21;48.59;100840.84;4991014;28;20043;-71
2021/03/30 01:42:45;;;;;;;16.10;6.50;;;;;;;17.23;48.03;100815.94;4992354;28;20052;-65
2021/03/30 01:45:15;;;;;;;10.10;4.78;;;;;;;17.49;47.56;100833.94;4987240;28;20070;-66
2021/03/30 01:47:42;;;;;;;8.17;4.87;;;;;;;17.66;47.05;100832.41;4991720;28;20050;-68
2021/03/30 01:50:10;;;;;;;12.43;5.60;;;;;;;17.80;46.57;100830.38;4991004;28;20046;-67
2021/03/30 01:52:37;;;;;;;10.50;4.60;;;;;;;17.90;46.48;100823.63;4990588;28;20054;-66
2021/03/30 01:55:08;;;;;;;13.33;6.33;;;;;;;18.00;46.40;100829.84;4991184;28;20053;-68
2021/03/30 01:57:36;;;;;;;;;;;;;;;18.13;46.06;100828.06;4992051;28;20049;-70
2021/03/30 02:00:07;;;;;;;9.97;4.37;;;;;;;17.98;45.91;100823.69;4992834;28;19933;-78
2021/03/30 02:02:34;;;;;;;14.87;5.87;;;;;;;18.14;45.63;100828.91;4980885;28;20495;-65
2021/03/30 02:05:01;;;;;;;11.80;5.70;;;;;;;18.14;45.45;100835.38;4990321;28;20407;-65
2021/03/30 02:07:28;;;;;;;11.13;4.37;;;;;;;17.97;46.09;100818.34;4985422;28;20042;-67
2021/03/30 02:09:59;;;;;;;14.30;5.47;;;;;;;18.02;45.94;100809.75;4989376;28;20046;-65
2021/03/30 02:12:35;;;;;;;12.67;4.87;;;;;;;18.06;46.04;100826.88;4992304;28;20054;-64
2021/03/30 02:15:02;;;;;;;13.20;6.70;;;;;;;18.08;45.98;100819.72;4991238;28;20168;-64
2021/03/30 02:17:38;;;;;;;9.53;4.57;;;;;;;17.99;46.36;100816.88;4990822;28;20455;-70
2021/03/30 02:20:19;;;;;;;17.43;5.83;;;;;;;17.84;46.45;100816.44;4991185;28;20128;-64
2021/03/30 02:22:51;;;;;;;9.13;4.30;;;;;;;17.72;46.86;100817.84;4987898;28;20048;-66
2021/03/30 02:25:22;;;;;;;9.53;6.07;;;;;;;17.62;47.39;100803.97;4991360;28;20050;-68
2021/03/30 02:27:51;;;;;;;12.87;6.83;;;;;;;17.54;47.54;100813.25;4989394;28;20050;-66
2021/03/30 02:30:20;;;;;;;16.00;5.85;;;;;;;17.38;47.63;100778.06;4991632;28;20266;-71
2021/03/30 02:32:52;;;;;;;12.60;5.27;;;;;;;17.57;47.60;100801.28;4990822;28;20393;-69
2021/03/30 02:35:20;;;;;;;9.87;4.87;;;;;;;17.62;47.42;100789.03;4992145;28;20411;-68
2021/03/30 02:37:47;;;;;;;11.87;4.97;;;;;;;17.67;46.81;100772.75;4990610;28;20042;-74
2021/03/30 02:40:16;;;;;;;15.47;4.20;;;;;;;17.90;46.47;100781.25;4990783;28;20054;-74
2021/03/30 02:42:46;;;;;;;9.93;4.57;;;;;;;18.04;45.79;100776.31;4990825;28;20054;-75
2021/03/30 02:45:14;;;;;;;;;;;;;;;18.21;45.63;100778.38;4992154;28;20503;-74
2021/03/30 02:48:03;;;;;;;13.70;5.07;;;;;;;18.35;45.24;100772.63;4985995;28;19922;-75
2021/03/30 02:50:30;;;;;;;16.77;4.87;;;;;;;18.31;45.14;100761.13;4988812;28;20173;-74
2021/03/30 02:52:57;;;;;;;12.87;5.70;;;;;;;18.46;45.67;100776.81;4988423;28;20042;-74
2021/03/30 02:55:24;;;;;;;15.33;7.33;;;;;;;18.49;45.81;100784.63;4988120;28;20046;-74
2021/03/30 02:57:50;;;;;;;12.90;7.27;;;;;;;18.50;45.63;100783.50;4990831;28;20073;-75
2021/03/30 03:00:17;;;;;;;19.43;7.80;;;;;;;18.51;45.96;100785.16;4990472;28;20047;-73
2021/03/30 03:02:46;;;;;;;13.10;5.93;;;;;;;18.45;45.72;100772.31;4989792;28;20042;-73
2021/03/30 03:05:13;;;;;;;13.40;6.93;;;;;;;18.52;45.71;100794.47;4989868;28;20046;-72
2021/03/30 03:07:41;;;;;;;10.90;4.97;;;;;;;18.39;45.48;100791.44;4988934;28;20066;-72
2021/03/30 03:10:09;;;;;;;15.67;5.53;;;;;;;18.44;45.41;100787.63;4988912;28;20050;-71
2021/03/30 03:12:38;;;;;;;10.30;4.73;;;;;;;18.45;44.97;100790.13;4990269;28;20062;-71
2021/03/30 03:15:07;;;;;;;9.33;4.03;;;;;;;18.32;44.90;100779.75;4989859;28;20046;-69
2021/03/30 03:17:35;;;;;;;11.82;4.88;;;;;;;18.27;45.31;100777.09;4990032;28;20178;-70
2021/03/30 03:20:05;;;;;;;10.77;4.93;;;;;;;18.22;45.82;100795.03;4989529;28;20443;-71
2021/03/30 03:22:31;;;;;;;15.35;5.05;;;;;;;18.03;45.87;100773.84;4988668;28;20050;-71
2021/03/30 03:24:58;;;;;;;10.90;5.73;;;;;;;17.99;46.36;100763.19;4990234;28;20046;-70
2021/03/30 03:27:25;;;;;;;13.07;4.93;;;;;;;18.05;46.15;100768.66;4986926;28;20047;-69
2021/03/30 03:29:51;;;;;;;11.70;4.80;;;;;;;18.08;45.76;100768.84;4989122;28;20050;-68
2021/03/30 03:32:25;;;;;;;8.07;5.00;;;;;;;18.07;45.83;100761.53;4989673;28;20060;-69
2021/03/30 03:34:51;;;;;;;11.83;4.73;;;;;;;18.19;45.50;100758.94;4990329;28;20065;-69
2021/03/30 03:37:17;;;;;;;16.10;6.20;;;;;;;18.36;45.69;100754.47;4988603;28;20126;-66
2021/03/30 03:39:44;;;;;;;15.50;6.40;;;;;;;18.39;45.47;100748.19;4988977;28;20042;-66
2021/03/30 03:42:10;;;;;;;12.23;5.57;;;;;;;18.43;45.87;100747.22;4989872;28;20096;-67
2021/03/30 03:44:37;;;;;;;15.63;6.37;;;;;;;18.46;45.87;100752.22;4988246;28;20173;-65
2021/03/30 03:47:03;;;;;;;14.07;6.23;;;;;;;18.45;45.45;100756.19;4990075;28;20038;-66
2021/03/30 03:49:30;;;;;;;14.80;5.43;;;;;;;18.44;45.11;100750.88;4989678;28;20060;-66
2021/03/30 03:52:04;;;;;;;11.50;5.40;;;;;;;18.31;45.54;100755.47;4987358;28;20069;-66
2021/03/30 03:54:33;;;;;;;13.03;5.43;;;;;;;18.30;45.42;100765.13;4987861;28;21653;-63
2021/03/30 03:57:04;;;;;;;12.23;4.97;;;;;;;17.97;46.60;100761.84;4988974;28;20153;-66
2021/03/30 03:59:34;;;;;;;13.10;5.87;;;;;;;17.82;47.26;100760.28;4989633;28;20054;-63
2021/03/30 04:02:25;;;;;;;16.98;6.05;;;;;;;17.69;47.29;100773.28;4989841;28;20055;-64
2021/03/30 04:05:00;;;;;;;12.20;6.17;;;;;;;17.63;47.30;100768.94;4989109;28;20046;-65
2021/03/30 04:07:33;;;;;;;12.37;6.67;;;;;;;17.68;47.08;100754.69;4988493;28;20050;-72
2021/03/30 04:10:03;;;;;;;12.63;6.37;;;;;;;17.61;47.41;100756.31;4989566;28;20471;-64
2021/03/30 04:12:31;;;;;;;8.35;4.95;;;;;;;17.55;47.41;100737.81;4990653;28;20069;-63
2021/03/30 04:14:58;;;;;;;14.53;6.27;;;;;;;17.68;47.29;100765.97;4988723;28;20061;-62
2021/03/30 04:17:25;;;;;;;12.37;6.27;;;;;;;17.70;47.23;100758.00;4987957;28;20074;-63
2021/03/30 04:19:51;;;;;;;17.27;6.90;;;;;;;17.71;46.89;100765.34;4988214;28;20042;-62
2021/03/30 04:22:18;;;;;;;14.13;6.20;;;;;;;17.79;47.09;100762.91;4988973;28;20054;-63
2021/03/30 04:24:45;;;;;;;14.10;5.93;;;;;;;17.82;46.87;100762.28;4988964;28;20523;-62
2021/03/30 04:27:12;;;;;;;16.77;6.17;;;;;;;17.66;46.99;100730.75;4989281;28;20050;-63
2021/03/30 04:29:40;;;;;;;13.20;6.97;;;;;;;17.89;47.08;100754.16;4989001;28;20050;-66
2021/03/30 04:32:08;;;;;;;13.50;5.17;;;;;;;17.90;46.61;100745.34;4989093;28;20050;-65
2021/03/30 04:34:35;;;;;;;12.00;5.57;;;;;;;17.87;46.94;100748.00;4988374;28;20809;-64
2021/03/30 04:37:03;;;;;;;13.00;6.27;;;;;;;17.83;46.71;100744.97;4988558;28;20455;-64
2021/03/30 04:39:30;;;;;;;13.20;5.67;;;;;;;17.83;47.01;100761.09;4991443;28;20166;-63
2021/03/30 04:41:56;;;;;;;20.70;5.97;;;;;;;17.85;46.92;100761.63;4993690;28;20048;-64
2021/03/30 04:44:22;;;;;;;21.20;5.77;;;;;;;17.87;46.58;100750.81;4992464;28;20038;-63
2021/03/30 04:46:49;;;;;;;13.93;5.63;;;;;;;17.88;46.70;100763.78;4991631;28;20105;-63
2021/03/30 04:49:15;;;;;;;10.33;5.70;;;;;;;17.64;46.92;100736.72;4992638;28;20043;-64
2021/03/30 04:51:42;;;;;;;16.57;5.80;;;;;;;17.72;46.87;100747.22;5008768;23;20046;-65
2021/03/30 04:54:15;;;;;;;11.50;5.80;;;;;;;17.68;47.18;100757.50;5032564;28;20094;-66
2021/03/30 04:56:41;;;;;;;13.93;5.30;;;;;;;17.53;47.68;100766.38;5043018;28;20045;-65
2021/03/30 04:59:08;;;;;;;14.07;5.50;;;;;;;17.41;47.86;100754.84;5044078;28;20132;-65
2021/03/30 05:01:34;;;;;;;9.80;4.73;;;;;;;17.39;48.18;100771.25;5041486;28;20049;-65
2021/03/30 05:04:00;;;;;;;7.93;4.90;;;;;;;17.07;49.32;100778.81;5045047;28;20049;-66
2021/03/30 05:06:31;;;;;;;7.47;4.10;;;;;;;16.83;50.02;100778.28;5039731;28;20120;-66
2021/03/30 05:08:57;;;;;;;3.07;2.37;;;;;;;16.68;50.21;100768.13;5035052;28;20128;-66
2021/03/30 05:11:24;;;;;;;6.13;3.20;;;;;;;16.50;51.18;100776.41;5039783;28;20057;-66
2021/03/30 05:13:50;;;;;;;13.00;3.30;;;;;;;16.01;51.49;100727.28;5044346;28;20051;-76
2021/03/30 05:16:17;;;;;;;8.17;3.83;;;;;;;16.22;51.85;100764.31;5038070;28;20118;-77
2021/03/30 05:18:44;;;;;;;13.17;3.83;;;;;;;16.25;51.71;100762.88;5038554;28;20447;-76
2021/03/30 05:21:11;;;;;;;6.97;3.80;;;;;;;16.31;51.74;100767.25;5039699;28;20053;-70
2021/03/30 05:23:37;;;;;;;7.13;3.47;;;;;;;16.24;52.01;100769.63;5029435;28;20413;-66
2021/03/30 05:26:04;;;;;;;7.63;3.83;;;;;;;16.28;52.15;100781.97;5037790;28;20418;-65
2021/03/30 05:28:30;;;;;;;4.43;1.33;;;;;;;16.17;52.07;100770.06;5042160;28;20151;-66
2021/03/30 05:30:57;;;;;;;8.93;2.03;;;;;;;16.24;51.88;100773.31;5040622;28;20141;-66
2021/03/30 05:33:23;;;;;;;9.70;4.00;;;;;;;16.22;51.96;100781.22;5039687;28;20052;-67
2021/03/30 05:35:49;;;;;;;5.50;2.93;;;;;;;16.16;52.00;100764.75;5042119;28;20053;-67
2021/03/30 05:38:15;;;;;;;7.77;4.10;;;;;;;16.31;51.81;100782.19;5036728;28;20050;-67
2021/03/30 05:40:42;;;;;;;5.83;3.37;;;;;;;16.33;51.77;100787.47;5035951;28;20038;-67
2021/03/30 05:43:12;;;;;;;7.03;2.87;;;;;;;16.33;51.74;100779.84;5043046;28;20040;-65
2021/03/30 05:45:38;;;;;;;13.75;3.05;;;;;;;16.32;51.78;100768.91;5042736;28;20049;-65
2021/03/30 05:48:10;;;;;;;7.27;3.17;;;;;;;16.42;51.41;100779.97;5037201;28;20704;-67
2021/03/30 05:50:37;;;;;;;3.60;2.17;;;;;;;16.46;51.24;100780.19;5039452;28;20057;-68
2021/03/30 05:53:08;;;;;;;8.00;4.03;;;;;;;16.49;51.07;100780.38;5004998;28;20050;-68
2021/03/30 05:55:39;;;;;;;11.23;3.97;;;;;;;16.53;50.87;100772.97;5015828;28;20049;-68
2021/03/30 05:58:07;;;;;;;14.35;3.55;;;;;;;16.65;50.56;100771.56;5013598;28;20165;-64
2021/03/30 06:00:38;;;;;;;7.83;3.80;;;;;;;16.66;50.25;100762.81;5018220;28;20046;-66
2021/03/30 06:03:10;;;;;;;10.33;3.50;;;;;;;16.84;49.87;100768.66;5018945;28;20053;-67
2021/03/30 06:05:38;;;;;;;6.97;3.67;;;;;;;16.85;49.72;100764.66;5018425;28;20054;-64
2021/03/30 06:08:05;;;;;;;15.93;4.10;;;;;;;16.94;49.73;100765.59;5017905;28;20133;-65
2021/03/30 06:10:34;;;;;;;4.53;2.17;;;;;;;16.94;49.49;100774.88;5016038;28;20068;-63
2021/03/30 06:13:04;;;;;;;9.53;4.37;;;;;;;16.86;49.53;100763.53;5015079;28;20469;-65
2021/03/30 06:15:35;;;;;;;14.23;4.72;;;;;;;16.89;49.90;100783.47;5018354;28;20108;-67
2021/03/30 06:18:20;;;;;;;9.67;3.83;;;;;;;16.80;49.95;100769.28;5020009;28;20119;-63
2021/03/30 06:20:48;;;;;;;8.90;3.37;;;;;;;16.76;50.09;100779.53;5022797;28;20045;-73
2021/03/30 06:23:26;;;;;;;6.83;3.17;;;;;;;16.88;49.66;100786.59;5022972;28;20482;-66
2021/03/30 06:25:55;;;;;;;14.37;3.53;;;;;;;16.92;49.57;100779.16;5017796;28;20063;-65
2021/03/30 06:28:24;;;;;;;15.40;4.33;;;;;;;16.96;49.44;100774.59;5021157;28;20053;-65
2021/03/30 06:31:06;;;;;;;;;;;;;;;17.03;49.29;100777.78;5014122;28;20045;-65
2021/03/30 06:33:35;;;;;;;10.97;2.90;;;;;;;17.04;49.29;100779.47;5019580;28;20004;-66
2021/03/30 06:36:18;;;;;;;8.70;4.67;;;;;;;16.98;49.33;100772.25;5000331;28;20052;-69
2021/03/30 06:39:05;;;;;;;12.07;4.33;;;;;;;17.09;49.03;100782.13;5029149;28;20057;-69
2021/03/30 06:44:28;;;;;;;9.43;4.33;;;;;;;17.23;48.60;100779.25;5016881;28;20053;-64
2021/03/30 06:46:59;;;;;;;15.20;3.97;;;;;;;17.33;48.39;100764.06;5016663;28;20454;-63
2021/03/30 06:49:28;;;;;;;10.03;4.27;;;;;;;17.41;48.03;100750.03;5016729;28;20068;-63
2021/03/30 06:51:55;;;;;;;15.53;4.43;;;;;;;17.55;47.55;100755.59;5024199;28;20128;-63
2021/03/30 06:54:22;;;;;;;8.63;3.43;;;;;;;17.66;47.58;100767.47;5034387;28;20049;-63
2021/03/30 06:56:51;;;;;;;6.37;3.53;;;;;;;17.67;47.17;100769.94;5036415;28;20049;-64
2021/03/30 06:59:19;;;;;;;11.97;4.10;;;;;;;17.74;46.84;100769.47;5040946;28;20124;-64
2021/03/30 07:01:48;;;;;;;12.47;4.43;;;;;;;17.79;46.97;100779.88;5040685;28;20333;-64
2021/03/30 07:04:17;;;;;;;11.23;4.13;;;;;;;17.69;46.57;100759.16;5040099;28;20041;-64
2021/03/30 07:06:54;;;;;;;9.73;4.03;;;;;;;17.73;47.00;100785.59;5036116;28;20052;-64
2021/03/30 07:09:22;;;;;;;9.83;3.70;;;;;;;16.11;47.47;100562.84;5039845;28;20128;-65
2021/03/30 07:11:51;;;;;;;15.23;4.10;;;;;;;17.56;47.60;100802.44;5034844;28;20044;-64
2021/03/30 07:14:21;;;;;;;10.53;4.63;;;;;;;17.58;47.54;100802.13;5036672;28;20045;-64
2021/03/30 07:16:56;;;;;;;11.70;4.37;;;;;;;17.36;47.84;100781.19;5036244;28;20162;-64
2021/03/30 07:19:25;;;;;;;8.80;4.70;;;;;;;17.39;48.25;100797.50;5038789;28;20132;-65
2021/03/30 07:22:02;;;;;;;16.07;5.07;;;;;;;17.38;48.17;100795.00;5033660;28;20038;-64
2021/03/30 07:24:39;;;;;;;4.93;3.67;;;;;;;17.39;48.27;100796.66;5039948;28;20049;-64
2021/03/30 07:27:12;;;;;;;10.53;5.30;;;;;;;17.41;48.49;100803.66;5029261;28;20049;-66
2021/03/30 07:29:45;;;;;;;16.37;4.87;;;;;;;17.37;48.61;100799.00;5033256;28;20513;-65
2021/03/30 07:32:31;;;;;;;9.50;4.23;;;;;;;17.38;48.62;100803.47;5031893;28;20128;-65
2021/03/30 07:35:17;;;;;;;6.33;2.47;;;;;;;17.39;48.32;100827.72;5037488;28;20045;-65
2021/03/30 07:37:52;;;;;;;6.03;3.10;;;;;;;17.46;48.18;100819.63;5031578;28;20067;-66
2021/03/30 07:40:21;;;;;;;10.83;4.00;;;;;;;17.47;48.26;100821.28;5031538;28;20053;-66
2021/03/30 07:42:49;;;;;;;12.93;3.63;;;;;;;17.44;48.04;100793.72;5031714;28;20132;-67
2021/03/30 07:45:20;;;;;;;9.03;3.10;;;;;;;17.50;47.99;100798.94;5031399;28;20060;-65
2021/03/30 07:47:47;;;;;;;17.67;5.33;;;;;;;17.54;47.92;100813.25;5038312;28;20691;-66
2021/03/30 07:50:16;;;;;;;7.87;3.03;;;;;;;17.61;47.73;100804.31;5031633;28;20583;-66
2021/03/30 07:52:54;;;;;;;9.90;3.50;;;;;;;17.68;47.57;100797.06;5033181;28;20486;-65
2021/03/30 07:55:27;;;;;;;7.13;4.00;;;;;;;17.80;47.04;100801.28;5031425;28;20053;-67
2021/03/30 07:57:58;;;;;;;9.27;4.10;;;;;;;17.93;47.29;100803.19;5034856;28;20454;-65
2021/03/30 08:00:31;;;;;;;10.50;4.20;;;;;;;17.98;46.84;100798.25;5033557;28;20425;-66
2021/03/30 08:02:59;;;;;;;10.83;4.23;;;;;;;18.06;46.94;100792.97;5037194;28;20048;-65
2021/03/30 08:05:27;;;;;;;18.93;4.07;;;;;;;18.23;46.37;100798.69;5032683;28;20156;-66
2021/03/30 08:07:57;;;;;;;12.30;4.07;;;;;;;18.37;46.47;100793.75;5030998;28;20041;-65
2021/03/30 08:10:32;;;;;;;9.32;4.82;;;;;;;18.44;45.82;100799.75;5040456;28;20049;-66
2021/03/30 08:13:33;;;;;;;10.90;4.30;;;;;;;18.32;46.00;100785.41;5036756;28;20098;-64
2021/03/30 08:16:01;;;;;;;12.27;3.53;;;;;;;18.42;46.13;100796.41;5037355;28;20124;-64
2021/03/30 08:18:32;;;;;;;9.07;4.23;;;;;;;18.38;46.17;100797.41;5039237;28;20133;-63
2021/03/30 08:20:58;;;;;;;10.00;4.30;;;;;;;18.51;45.84;100809.78;5036608;28;20082;-64
2021/03/30 08:23:26;;;;;;;9.00;4.27;;;;;;;18.45;45.56;100800.59;5040310;28;20049;-64
2021/03/30 08:26:14;;;;;;;11.80;4.40;;;;;;;18.57;45.42;100819.78;5031125;28;20496;-62
2021/03/30 08:28:49;;;;;;;31.65;6.68;;;;;;;18.66;46.10;100827.09;5034532;28;20132;-63
2021/03/30 08:31:18;;;;;;;25.53;5.87;;;;;;;18.75;46.11;100820.69;5045182;28;20041;-63
2021/03/30 08:33:45;;;;;;;20.02;6.65;;;;;;;18.86;46.78;100830.53;5032836;28;20490;-65
2021/03/30 08:36:19;;;;;;;24.97;6.67;;;;;;;18.91;46.70;100827.56;5039615;28;20070;-62
2021/03/30 08:38:48;;;;;;;28.77;6.97;;;;;;;18.92;46.88;100813.06;5038923;28;20107;-64
2021/03/30 08:41:42;;;;;;;25.08;7.05;;;;;;;18.98;47.19;100813.75;5033273;28;20107;-64
2021/03/30 08:44:13;;;;;;;21.05;7.15;;;;;;;19.00;47.25;100800.06;5032370;28;20110;-65
2021/03/30 08:46:41;;;;;;;13.85;5.40;;;;;;;19.02;46.85;100792.09;5034987;28;20050;-64
2021/03/30 08:49:24;;;;;;;12.90;4.75;;;;;;;19.07;46.14;100793.91;5031735;28;20038;-64
2021/03/30 08:51:52;;;;;;;17.65;6.72;;;;;;;19.16;46.02;100789.94;5037271;28;20037;-63
2021/03/30 08:54:26;;;;;;;18.50;5.70;;;;;;;19.18;46.00;100773.47;5029746;28;20045;-62
2021/03/30 08:56:59;;;;;;;12.00;5.47;;;;;;;19.28;46.08;100782.75;5029133;28;20044;-63
2021/03/30 08:59:27;;;;;;;14.52;5.47;;;;;;;19.34;45.70;100787.09;5043168;28;20053;-64
2021/03/30 09:02:00;;;;;;;18.50;5.80;;;;;;;19.36;45.63;100784.78;5030900;28;20063;-62
2021/03/30 09:04:37;;;;;;;15.02;5.45;;;;;;;19.35;45.55;100794.41;5030465;28;20053;-63
2021/03/30 09:07:07;;;;;;;17.15;4.43;;;;;;;19.42;45.13;100794.78;5029881;28;20063;-63
2021/03/30 09:09:35;;;;;;;17.05;5.78;;;;;;;19.37;44.95;100798.59;5025060;28;20129;-64
2021/03/30 09:12:21;;;;;;;14.35;5.43;;;;;;;19.31;45.25;100804.75;5030782;28;20103;-62
2021/03/30 09:15:08;;;;;;;14.38;5.57;;;;;;;19.25;44.89;100806.94;5031818;28;20049;-63
2021/03/30 09:17:36;;;;;;;19.48;6.00;;;;;;;19.17;44.93;100794.41;5030014;28;20103;-64
2021/03/30 09:20:07;;;;;;;13.02;5.55;;;;;;;19.25;44.86;100817.41;5027644;28;20077;-63
2021/03/30 09:22:40;;;;;;;13.25;5.90;;;;;;;19.36;45.00;100818.75;5033598;28;20129;-64
2021/03/30 09:27:55;;;;;;;14.43;6.03;;;;;;;19.47;44.87;100831.41;5038767;28;20049;-62
2021/03/30 09:30:23;;;;;;;13.93;5.68;;;;;;;19.50;44.51;100825.06;5036824;28;20446;-64
2021/03/30 09:32:52;;;;;;;16.52;6.35;;;;;;;19.65;44.72;100826.56;5034028;28;20053;-64
2021/03/30 09:35:23;;;;;;;19.58;6.75;;;;;;;19.69;44.36;100835.25;5033682;28;20081;-65
2021/03/30 09:38:00;;;;;;;14.90;6.63;;;;;;;19.66;44.19;100839.59;5033457;28;20055;-64
2021/03/30 09:40:32;;;;;;;14.63;4.72;;;;;;;19.66;44.30;100833.94;5033200;28;20046;-63
2021/03/30 09:42:59;;;;;;;9.35;4.93;;;;;;;19.66;44.36;100845.25;5033214;28;20546;-63
2021/03/30 09:45:29;;;;;;;19.63;6.07;;;;;;;19.62;44.51;100839.41;5041640;28;20053;-63
2021/03/30 09:47:58;;;;;;;9.45;5.05;;;;;;;19.52;44.15;100844.56;5035139;28;20119;-62
2021/03/30 09:50:26;;;;;;;12.50;5.60;;;;;;;19.49;44.58;100828.25;5033914;28;20453;-64
2021/03/30 09:53:07;;;;;;;9.93;3.60;;;;;;;19.31;44.40;100830.22;5035994;28;20064;-64
2021/03/30 09:55:34;;;;;;;4.82;2.90;;;;;;;19.26;44.93;100842.56;5034702;28;20046;-63
2021/03/30 09:58:04;;;;;;;7.88;4.07;;;;;;;19.17;45.26;100845.38;5036808;28;20045;-63
2021/03/30 10:00:33;;;;;;;9.60;3.25;;;;;;;19.08;45.05;100835.22;5040663;28;20049;-63
2021/03/30 10:03:01;;;;;;;7.72;2.00;;;;;;;19.00;44.95;100833.22;5037912;28;20049;-63
2021/03/30 10:05:32;;;;;;;10.32;3.22;;;;;;;19.07;45.38;100810.91;5034662;28;20052;-63
2021/03/30 10:07:59;;;;;;;7.07;2.67;;;;;;;19.18;44.96;100832.09;5038995;28;20052;-63
2021/03/30 10:10:39;;;;;;;3.53;1.98;;;;;;;19.10;45.71;100824.41;5036168;28;20099;-63
2021/03/30 10:13:07;;;;;;;;;;;;;;;19.02;45.70;100822.41;5035332;28;20037;-64
2021/03/30 10:15:39;;;;;;;11.07;4.78;;;;;;;18.98;45.40;100773.28;5037575;28;19925;-63
2021/03/30 10:18:09;;;;;;;12.45;5.47;;;;;;;19.42;45.15;100823.09;5038805;28;20107;-64
2021/03/30 10:20:50;;;;;;;26.70;6.88;;;;;;;19.50;44.86;100822.25;5040514;28;20129;-63
2021/03/30 10:23:25;;;;;;;16.30;5.60;;;;;;;19.62;45.01;100822.41;5038041;28;20045;-63
2021/03/30 10:25:55;;;;;;;12.00;3.67;;;;;;;19.65;44.53;100818.91;5036710;28;20052;-62
2021/03/30 10:28:30;;;;;;;2.53;1.98;;;;;;;19.79;44.44;100823.56;5036733;28;20049;-64
2021/03/30 10:31:06;;;;;;;9.27;3.13;;;;;;;19.85;44.12;100819.38;5036388;28;20413;-65
2021/03/30 10:33:41;;;;;;;9.05;2.22;;;;;;;19.83;43.76;100821.75;5040022;28;20115;-63
2021/03/30 10:36:10;;;;;;;14.07;3.97;;;;;;;20.06;43.48;100823.16;5036528;28;20049;-64
2021/03/30 10:38:37;;;;;;;12.38;3.90;;;;;;;20.10;42.78;100815.66;5038262;28;20524;-64
2021/03/30 10:41:09;;;;;;;14.55;4.82;;;;;;;20.28;42.38;100827.75;5027152;28;20037;-63
2021/03/30 10:43:39;;;;;;;4.72;2.65;;;;;;;20.32;42.27;100834.41;5039600;28;20506;-64
2021/03/30 10:46:19;;;;;;;12.13;3.15;;;;;;;20.39;41.88;100822.53;5035168;28;20053;-63
2021/03/30 10:49:01;;;;;;;14.75;3.72;;;;;;;20.40;41.79;100835.53;5034184;28;20049;-64
2021/03/30 10:51:31;;;;;;;9.18;3.88;;;;;;;20.50;41.49;100834.34;5032454;28;20497;-64
2021/03/30 10:54:03;;;;;;;11.65;3.97;;;;;;;20.56;41.28;100838.69;5041082;28;20044;-62
2021/03/30 10:56:34;;;;;;;9.90;3.17;;;;;;;20.67;41.45;100839.13;5035196;28;20405;-63
2021/03/30 10:59:06;;;;;;;;;;;;;;;20.51;41.62;100847.38;5042690;28;20057;-62
2021/03/30 11:01:32;;;;;;;14.90;5.15;;;;;;;20.52;41.36;100847.06;5036484;28;19921;-63
2021/03/30 11:03:59;;;;;;;14.63;4.03;;;;;;;20.64;41.12;100851.16;5037815;28;20465;-65
2021/03/30 11:06:27;;;;;;;11.20;3.92;;;;;;;20.63;41.17;100838.16;5032149;28;20068;-62
2021/03/30 11:08:54;;;;;;;21.80;4.72;;;;;;;20.74;41.31;100839.41;5032411;28;20478;-64
2021/03/30 11:11:20;;;;;;;5.82;3.17;;;;;;;20.70;41.48;100835.59;5033621;28;20051;-64
2021/03/30 11:13:49;;;;;;;12.43;5.53;;;;;;;20.92;41.36;100851.50;5034184;28;20440;-64
2021/03/30 11:16:15;;;;;;;14.65;5.00;;;;;;;21.06;41.08;100844.41;5039156;28;20071;-62
2021/03/30 11:18:42;;;;;;;6.32;2.92;;;;;;;21.21;40.98;100834.44;5035387;28;20139;-64
2021/03/30 11:21:08;;;;;;;7.68;3.42;;;;;;;21.29;40.93;100835.53;5031947;28;20091;-63
2021/03/30 11:23:35;;;;;;;13.40;4.43;;;;;;;21.34;40.83;100829.69;5034553;28;20115;-63
2021/03/30 11:26:02;;;;;;;13.45;4.97;;;;;;;21.34;40.74;100840.19;5039410;28;20216;-63
2021/03/30 11:28:35;;;;;;;5.55;2.97;;;;;;;21.35;40.60;100825.66;5039993;28;20795;-63
2021/03/30 11:31:04;;;;;;;10.52;3.72;;;;;;;21.37;40.76;100829.00;5037880;28;20037;-62
2021/03/30 11:33:34;;;;;;;11.52;5.57;;;;;;;21.36;40.22;100832.16;5032328;28;20045;-64
2021/03/30 11:36:15;;;;;;;3.47;2.30;;;;;;;21.20;40.64;100837.63;5031307;28;20085;-63
2021/03/30 11:38:42;;;;;;;6.60;4.03;;;;;;;21.16;40.38;100834.66;5038213;28;20634;-64
2021/03/30 11:41:09;;;;;;;16.50;4.15;;;;;;;21.36;40.26;100820.81;5036102;28;20055;-65
2021/03/30 11:43:35;;;;;;;12.23;3.95;;;;;;;21.42;39.81;100822.28;5037797;28;20049;-65